createdAt,value
2019-03-21T00:01:18.722Z,48.50
2019-03-21T00:03:48.400Z,46.30
2019-03-21T00:06:17.394Z,53.43
2019-03-21T00:08:46.459Z,45.67
2019-03-21T00:11:33.184Z,45.10
2019-03-21T00:14:07.174Z,49.97
2019-03-21T00:16:34.429Z,54.10
2019-03-21T00:19:03.514Z,56.13
2019-03-21T00:21:32.556Z,52.03
2019-03-21T00:24:01.537Z,63.27
2019-03-21T00:26:31.426Z,52.30
2019-03-21T00:29:00.665Z,53.27
2019-03-21T00:31:29.675Z,52.57
2019-03-21T00:33:58.661Z,57.17
2019-03-21T00:36:27.776Z,58.80
2019-03-21T00:38:56.873Z,58.37
2019-03-21T00:41:25.899Z,65.07
2019-03-21T00:43:54.939Z,56.13
2019-03-21T00:46:23.955Z,61.73
2019-03-21T00:48:52.995Z,61.53
2019-03-21T00:51:22.129Z,53.00
2019-03-21T00:53:51.110Z,68.83
2019-03-21T00:56:21.600Z,51.33
2019-03-21T00:58:50.577Z,57.73
2019-03-21T01:01:19.595Z,57.50
2019-03-21T01:03:48.615Z,60.70
2019-03-21T01:06:17.606Z,60.60
2019-03-21T01:08:48.448Z,64.17
2019-03-21T01:11:17.483Z,55.73
2019-03-21T01:13:46.639Z,56.17
2019-03-21T01:16:15.702Z,63.37
2019-03-21T01:18:44.767Z,54.80
2019-03-21T01:21:13.773Z,57.70
2019-03-21T01:23:42.819Z,62.80
2019-03-21T01:26:11.795Z,60.93
2019-03-21T01:28:40.861Z,57.90
2019-03-21T01:31:09.857Z,55.67
2019-03-21T01:33:38.923Z,65.67
2019-03-21T01:36:07.910Z,60.17
2019-03-21T01:38:36.959Z,54.23
2019-03-21T01:41:05.986Z,53.83
2019-03-21T01:43:34.989Z,67.40
2019-03-21T01:46:05.364Z,53.33
2019-03-21T01:48:34.352Z,50.67
2019-03-21T01:51:03.325Z,52.70
2019-03-21T01:53:32.413Z,50.73
2019-03-21T01:56:01.455Z,58.63
2019-03-21T01:58:30.516Z,55.90
2019-03-21T02:00:59.497Z,57.10
2019-03-21T02:03:28.482Z,49.93
2019-03-21T02:05:57.555Z,56.97
2019-03-21T02:08:26.707Z,52.77
2019-03-21T02:10:55.666Z,53.93
2019-03-21T02:13:24.678Z,54.73
2019-03-21T02:15:53.649Z,57.10
2019-03-21T02:18:22.697Z,55.70
2019-03-21T02:20:51.741Z,54.80
2019-03-21T02:23:20.751Z,47.83
2019-03-21T02:25:49.820Z,53.20
2019-03-21T02:28:18.803Z,54.07
2019-03-21T02:30:47.786Z,54.23
2019-03-21T02:33:26.495Z,56.53
2019-03-21T02:35:55.572Z,51.43
2019-03-21T02:38:24.642Z,52.00
2019-03-21T02:40:53.737Z,57.10
2019-03-21T02:43:22.747Z,51.63
2019-03-21T02:45:51.767Z,53.23
2019-03-21T02:48:20.814Z,49.63
2019-03-21T02:50:49.889Z,51.70
2019-03-21T02:53:18.878Z,58.23
2019-03-21T02:55:47.857Z,59.07
2019-03-21T02:58:19.779Z,57.80
2019-03-21T03:00:48.819Z,49.13
2019-03-21T03:03:17.791Z,48.10
2019-03-21T03:05:46.771Z,52.57
2019-03-21T03:08:15.897Z,50.40
2019-03-21T03:10:46.365Z,46.60
2019-03-21T03:13:15.378Z,47.27
2019-03-21T03:15:44.437Z,50.70
2019-03-21T03:18:13.450Z,42.83
2019-03-21T03:20:42.560Z,47.37
2019-03-21T03:23:11.599Z,49.57
2019-03-21T03:25:40.661Z,48.17
2019-03-21T03:28:17.499Z,54.80
2019-03-21T03:30:46.534Z,53.30
2019-03-21T03:33:15.517Z,49.27
2019-03-21T03:35:44.582Z,49.87
2019-03-21T03:38:13.651Z,50.03
2019-03-21T03:40:47.422Z,49.40
2019-03-21T03:43:16.463Z,50.30
2019-03-21T03:45:45.528Z,42.60
2019-03-21T03:48:14.504Z,48.37
2019-03-21T03:50:43.570Z,47.40
2019-03-21T03:53:13.992Z,50.83
2019-03-21T03:55:43.081Z,54.37
2019-03-21T03:58:12.934Z,47.83
2019-03-21T04:00:42.848Z,51.33
2019-03-21T04:03:11.825Z,50.53
2019-03-21T04:05:40.906Z,54.73
2019-03-21T04:08:09.946Z,48.93
2019-03-21T04:10:40.041Z,56.37
2019-03-21T04:13:09.115Z,56.43
2019-03-21T04:15:51.763Z,52.47
2019-03-21T04:18:08.835Z,51.47
2019-03-21T04:20:38.561Z,54.83
2019-03-21T04:23:10.698Z,48.93
2019-03-21T04:25:44.157Z,49.97
2019-03-21T04:28:14.965Z,49.37
2019-03-21T04:30:44.458Z,50.77
2019-03-21T04:33:16.493Z,52.40
2019-03-21T04:35:45.524Z,57.47
2019-03-21T04:38:14.507Z,46.07
2019-03-21T04:40:43.600Z,51.17
2019-03-21T04:43:14.082Z,50.60
2019-03-21T04:45:43.571Z,49.80
2019-03-21T04:48:12.676Z,55.63
2019-03-21T04:50:41.763Z,50.37
2019-03-21T04:53:10.832Z,48.53
2019-03-21T04:55:39.838Z,55.50
2019-03-21T04:58:08.807Z,52.30
2019-03-21T05:00:38.239Z,49.33
2019-03-21T05:03:07.712Z,52.33
2019-03-21T05:05:36.749Z,56.17
2019-03-21T05:08:05.790Z,54.20
2019-03-21T05:10:34.790Z,55.97
2019-03-21T05:13:03.819Z,52.30
2019-03-21T05:15:34.224Z,52.33
2019-03-21T05:18:13.882Z,48.00
2019-03-21T05:20:42.952Z,50.93
2019-03-21T05:23:11.977Z,46.97
2019-03-21T05:25:40.931Z,47.70
2019-03-21T05:28:09.949Z,49.10
2019-03-21T05:30:50.390Z,50.80
2019-03-21T05:33:19.485Z,54.20
2019-03-21T05:35:48.480Z,46.47
2019-03-21T05:38:17.550Z,44.97
2019-03-21T05:40:46.550Z,50.60
2019-03-21T05:43:17.012Z,52.47
2019-03-21T05:45:49.424Z,50.40
2019-03-21T05:48:18.428Z,51.00
2019-03-21T05:50:47.417Z,42.53
2019-03-21T05:53:16.440Z,49.53
2019-03-21T05:55:45.433Z,43.97
2019-03-21T05:58:15.805Z,41.93
2019-03-21T06:00:45.065Z,43.67
2019-03-21T06:03:18.700Z,44.87
2019-03-21T06:05:50.068Z,44.67
2019-03-21T06:08:23.692Z,42.53
2019-03-21T06:10:52.744Z,38.70
2019-03-21T06:13:21.837Z,30.93
2019-03-21T06:15:50.878Z,37.33
2019-03-21T06:18:51.008Z,36.77
2019-03-21T06:21:48.141Z,29.17
2019-03-21T06:24:45.422Z,32.43
2019-03-21T06:27:39.202Z,27.87
2019-03-21T06:30:09.656Z,27.43
2019-03-21T06:32:38.733Z,32.50
2019-03-21T06:35:12.019Z,29.83
2019-03-21T06:37:41.104Z,35.97
2019-03-21T06:40:10.320Z,35.03
2019-03-21T06:42:39.392Z,32.93
2019-03-21T06:45:10.475Z,39.97
2019-03-21T06:47:39.547Z,36.03
2019-03-21T06:50:08.622Z,34.63
2019-03-21T06:52:41.362Z,35.73
2019-03-21T06:55:10.443Z,36.87
2019-03-21T06:57:39.430Z,34.43
2019-03-21T07:00:08.581Z,35.87
2019-03-21T07:02:37.813Z,32.87
2019-03-21T07:05:07.290Z,36.40
2019-03-21T07:07:36.412Z,36.13
2019-03-21T07:10:06.073Z,35.30
2019-03-21T07:12:35.113Z,35.13
2019-03-21T07:15:05.345Z,39.80
2019-03-21T07:17:34.406Z,36.90
2019-03-21T07:20:03.499Z,38.73
2019-03-21T07:22:32.583Z,37.80
2019-03-21T07:25:01.618Z,35.10
2019-03-21T07:27:30.626Z,39.17
2019-03-21T07:29:59.605Z,39.00
2019-03-21T07:32:33.273Z,41.43
2019-03-21T07:34:59.375Z,38.83
2019-03-21T07:37:28.401Z,39.37
2019-03-21T07:39:57.391Z,37.23
2019-03-21T07:42:26.466Z,33.07
2019-03-21T07:44:55.459Z,36.83
2019-03-21T07:47:24.424Z,38.17
2019-03-21T07:49:53.466Z,34.90
2019-03-21T07:52:22.547Z,35.50
2019-03-21T07:54:51.579Z,36.23
2019-03-21T07:57:20.594Z,38.67
2019-03-21T07:59:49.651Z,37.63
2019-03-21T08:02:18.630Z,33.93
2019-03-21T08:04:47.671Z,29.10
2019-03-21T08:07:16.731Z,34.37
2019-03-21T08:09:45.751Z,35.40
2019-03-21T08:12:14.712Z,33.73
2019-03-21T08:14:43.719Z,37.77
2019-03-21T08:17:12.746Z,37.70
2019-03-21T08:19:41.844Z,41.43
2019-03-21T08:22:10.971Z,37.03
2019-03-21T08:24:40.165Z,45.87
2019-03-21T08:27:09.194Z,42.37
2019-03-21T08:29:38.209Z,45.47
2019-03-21T08:32:07.212Z,39.80
2019-03-21T08:34:36.257Z,36.80
2019-03-21T08:37:05.289Z,40.17
2019-03-21T08:39:34.346Z,36.83
2019-03-21T08:42:03.430Z,34.13
2019-03-21T08:44:32.494Z,45.23
2019-03-21T08:47:08.522Z,37.33
2019-03-21T08:49:37.521Z,42.47
2019-03-21T08:52:06.600Z,31.90
2019-03-21T08:54:35.628Z,39.60
2019-03-21T08:57:04.626Z,34.00
2019-03-21T08:59:33.599Z,35.70
2019-03-21T09:02:02.710Z,39.97
2019-03-21T09:04:31.756Z,34.33
2019-03-21T09:07:00.770Z,41.17
2019-03-21T09:09:29.733Z,36.07
2019-03-21T09:11:58.814Z,33.40
2019-03-21T09:14:27.836Z,27.10
2019-03-21T09:16:56.836Z,30.63
2019-03-21T09:19:25.919Z,29.07
2019-03-21T09:21:54.917Z,31.07
2019-03-21T09:24:25.915Z,29.73
2019-03-21T09:26:54.667Z,28.30
2019-03-21T09:29:23.651Z,28.77
2019-03-21T09:31:52.722Z,31.27
2019-03-21T09:34:21.809Z,27.13
2019-03-21T09:36:50.872Z,28.30
2019-03-21T09:39:19.890Z,25.53
2019-03-21T09:41:48.983Z,30.77
2019-03-21T09:44:35.252Z,28.77
2019-03-21T09:47:04.243Z,31.27
2019-03-21T09:49:33.281Z,30.00
2019-03-21T09:52:02.391Z,25.73
2019-03-21T09:54:31.489Z,30.73
2019-03-21T09:57:00.461Z,23.57
2019-03-21T09:59:29.485Z,28.30
2019-03-21T10:01:58.596Z,22.57
2019-03-21T10:04:27.661Z,22.63
2019-03-21T10:06:56.800Z,19.73
2019-03-21T10:09:25.818Z,16.77
2019-03-21T10:11:54.880Z,20.37
2019-03-21T10:14:23.970Z,18.03
2019-03-21T10:16:52.974Z,17.10
2019-03-21T10:19:21.970Z,19.30
2019-03-21T10:21:50.973Z,22.90
2019-03-21T10:24:20.011Z,21.13
2019-03-21T10:26:48.998Z,19.33
2019-03-21T10:29:18.215Z,19.57
2019-03-21T10:31:47.256Z,22.03
2019-03-21T10:34:16.258Z,22.67
2019-03-21T10:36:45.380Z,19.30
2019-03-21T10:39:14.418Z,22.90
2019-03-21T10:41:43.391Z,18.90
2019-03-21T10:44:15.559Z,21.90
2019-03-21T10:46:44.316Z,24.93
2019-03-21T10:49:13.405Z,25.07
2019-03-21T10:51:50.451Z,20.87
2019-03-21T10:54:13.206Z,27.00
2019-03-21T10:56:42.249Z,20.90
2019-03-21T10:59:11.295Z,23.17
2019-03-21T11:01:40.276Z,23.63
2019-03-21T11:04:09.280Z,26.10
2019-03-21T11:06:38.383Z,27.13
2019-03-21T11:09:08.681Z,20.63
2019-03-21T11:11:37.727Z,25.17
2019-03-21T11:14:06.987Z,25.60
2019-03-21T11:16:36.049Z,24.10
2019-03-21T11:19:05.105Z,26.10
2019-03-21T11:21:34.259Z,28.93
2019-03-21T11:24:03.318Z,24.00
2019-03-21T11:26:32.389Z,23.63
2019-03-21T11:29:01.459Z,25.90
2019-03-21T11:31:30.469Z,22.23
2019-03-21T11:33:59.553Z,23.03
2019-03-21T11:36:37.763Z,26.90
2019-03-21T11:38:59.464Z,24.93
2019-03-21T11:41:28.537Z,21.47
2019-03-21T11:43:57.660Z,24.07
2019-03-21T11:46:26.737Z,22.13
2019-03-21T11:48:55.769Z,24.43
2019-03-21T11:51:24.969Z,23.10
2019-03-21T11:53:54.112Z,22.30
2019-03-21T11:56:23.134Z,21.70
2019-03-21T11:58:52.229Z,25.30
2019-03-21T12:01:21.559Z,22.93
2019-03-21T12:03:50.560Z,25.23
2019-03-21T12:06:19.593Z,25.87
2019-03-21T12:08:48.597Z,20.43
2019-03-21T12:11:17.645Z,24.10
2019-03-21T12:13:46.855Z,25.50
2019-03-21T12:16:15.865Z,25.27
2019-03-21T12:18:44.970Z,22.40
2019-03-21T12:21:14.006Z,24.37
2019-03-21T12:23:42.992Z,26.77
2019-03-21T12:26:12.032Z,22.63
2019-03-21T12:28:41.057Z,28.73
2019-03-21T12:31:10.088Z,26.00
2019-03-21T12:33:39.145Z,23.87
2019-03-21T12:36:08.269Z,24.00
2019-03-21T12:38:37.337Z,22.47
2019-03-21T12:41:06.407Z,24.40
2019-03-21T12:43:35.506Z,21.30
2019-03-21T12:46:04.661Z,24.20
2019-03-21T12:48:33.689Z,20.30
2019-03-21T12:51:02.750Z,22.93
2019-03-21T12:53:31.813Z,19.07
2019-03-21T12:56:00.814Z,22.00
2019-03-21T12:58:29.889Z,22.77
2019-03-21T13:00:59.048Z,19.80
2019-03-21T13:03:28.053Z,22.50
2019-03-21T13:05:57.082Z,15.37
2019-03-21T13:08:33.661Z,18.47
2019-03-21T13:10:56.791Z,16.40
2019-03-21T13:13:25.785Z,18.40
2019-03-21T13:15:54.854Z,17.57
2019-03-21T13:18:23.917Z,15.37
2019-03-21T13:20:52.921Z,13.97
2019-03-21T13:23:21.918Z,18.73
2019-03-21T13:25:50.996Z,13.87
2019-03-21T13:28:20.104Z,18.23
2019-03-21T13:30:51.268Z,13.20
2019-03-21T13:33:20.314Z,16.50
2019-03-21T13:35:49.561Z,14.97
2019-03-21T13:38:20.980Z,18.77
2019-03-21T13:40:50.031Z,45.60
2019-03-21T13:43:24.335Z,14.53
2019-03-21T13:45:53.411Z,15.83
2019-03-21T13:48:22.496Z,15.83
2019-03-21T13:50:51.627Z,16.57
2019-03-21T13:53:20.703Z,17.13
2019-03-21T13:55:49.722Z,12.67
2019-03-21T13:58:18.759Z,14.63
2019-03-21T14:00:47.862Z,14.10
2019-03-21T14:03:25.035Z,17.20
2019-03-21T14:05:47.647Z,13.20
2019-03-21T14:08:16.691Z,15.77
2019-03-21T14:10:45.811Z,16.03
2019-03-21T14:13:14.896Z,17.73
2019-03-21T14:15:43.900Z,14.00
2019-03-21T14:18:12.917Z,15.67
2019-03-21T14:20:41.925Z,13.73
2019-03-21T14:23:17.132Z,14.10
2019-03-21T14:25:41.723Z,17.27
2019-03-21T14:28:10.827Z,16.57
2019-03-21T14:30:39.895Z,16.23
2019-03-21T14:33:08.996Z,18.70
2019-03-21T14:35:38.070Z,15.50
2019-03-21T14:38:07.140Z,22.83
2019-03-21T14:40:36.175Z,20.17
2019-03-21T14:43:05.200Z,18.53
2019-03-21T14:45:34.254Z,18.50
2019-03-21T14:48:03.306Z,15.97
2019-03-21T14:50:32.348Z,17.77
2019-03-21T14:53:01.352Z,18.23
2019-03-21T14:55:30.362Z,16.83
2019-03-21T14:57:59.878Z,18.67
2019-03-21T15:00:28.939Z,26.67
2019-03-21T15:02:58.123Z,17.03
2019-03-21T15:05:27.265Z,18.13
2019-03-21T15:07:56.268Z,18.63
2019-03-21T15:10:27.526Z,20.80
2019-03-21T15:12:56.673Z,19.63
2019-03-21T15:15:25.769Z,18.43
2019-03-21T15:17:54.799Z,19.10
2019-03-21T15:20:23.931Z,17.10
2019-03-21T15:22:56.860Z,17.70
2019-03-21T15:25:25.085Z,14.27
2019-03-21T15:27:54.224Z,20.17
2019-03-21T15:30:26.070Z,19.70
2019-03-21T15:32:56.780Z,18.47
2019-03-21T15:35:25.905Z,18.50
2019-03-21T15:37:54.930Z,22.80
2019-03-21T15:40:24.085Z,18.90
2019-03-21T15:42:53.081Z,20.03
2019-03-21T15:45:24.181Z,17.87
2019-03-21T15:47:53.272Z,19.17
2019-03-21T15:50:37.628Z,14.83
2019-03-21T15:53:06.339Z,16.60
2019-03-21T15:55:35.547Z,18.83
2019-03-21T15:58:04.615Z,21.67
2019-03-21T16:00:39.623Z,18.60
2019-03-21T16:03:09.024Z,15.83
2019-03-21T16:05:38.246Z,17.30
2019-03-21T16:08:08.835Z,16.90
2019-03-21T16:10:38.278Z,18.00
2019-03-21T16:13:07.548Z,21.70
2019-03-21T16:15:36.634Z,19.37
2019-03-21T16:18:05.707Z,17.43
2019-03-21T16:20:34.818Z,29.27
2019-03-21T16:23:03.960Z,21.70
2019-03-21T16:25:33.069Z,21.93
2019-03-21T16:28:02.123Z,18.40
2019-03-21T16:30:31.179Z,17.33
2019-03-21T16:33:00.268Z,22.90
2019-03-21T16:35:29.439Z,21.67
2019-03-21T16:37:58.663Z,19.90
2019-03-21T16:40:27.842Z,16.93
2019-03-21T16:42:56.865Z,24.17
2019-03-21T16:45:25.889Z,18.50
2019-03-21T16:47:55.512Z,16.10
2019-03-21T16:50:24.560Z,18.70
2019-03-21T16:52:53.544Z,20.90
2019-03-21T16:55:22.635Z,18.77
2019-03-21T16:57:52.899Z,19.13
2019-03-21T17:00:21.948Z,15.47
2019-03-21T17:02:51.052Z,24.13
2019-03-21T17:05:22.311Z,17.03
2019-03-21T17:07:50.857Z,19.17
2019-03-21T17:10:19.906Z,17.10
2019-03-21T17:12:49.047Z,19.10
2019-03-21T17:15:18.155Z,20.27
2019-03-21T17:17:52.402Z,19.07
2019-03-21T17:20:24.544Z,16.20
2019-03-21T17:22:53.627Z,18.27
2019-03-21T17:25:22.802Z,16.60
2019-03-21T17:27:54.535Z,20.50
2019-03-21T17:30:22.762Z,18.07
2019-03-21T17:32:51.757Z,16.23
2019-03-21T17:35:20.853Z,19.90
2019-03-21T17:37:56.444Z,18.60
2019-03-21T17:40:25.539Z,21.33
2019-03-21T17:42:55.726Z,19.37
2019-03-21T17:45:27.033Z,23.03
2019-03-21T17:47:56.050Z,21.50
2019-03-21T17:50:25.675Z,23.23
2019-03-21T17:52:54.822Z,23.57
2019-03-21T17:55:23.882Z,20.73
2019-03-21T17:57:55.101Z,23.97
2019-03-21T18:00:27.204Z,23.80
2019-03-21T18:02:56.611Z,19.70
2019-03-21T18:05:26.097Z,21.57
2019-03-21T18:07:55.410Z,24.50
2019-03-21T18:10:25.599Z,21.30
2019-03-21T18:13:01.153Z,21.23
2019-03-21T18:15:33.480Z,23.13
2019-03-21T18:18:05.947Z,22.00
2019-03-21T18:20:35.474Z,22.93
2019-03-21T18:23:04.800Z,26.03
2019-03-21T18:25:34.110Z,23.13
2019-03-21T18:28:03.166Z,19.73
2019-03-21T18:30:32.214Z,23.77
2019-03-21T18:33:01.731Z,23.80
2019-03-21T18:35:32.741Z,20.63
2019-03-21T18:38:04.645Z,24.70
2019-03-21T18:40:36.639Z,21.13
2019-03-21T18:43:05.748Z,22.80
2019-03-21T18:45:34.923Z,20.27
2019-03-21T18:48:04.203Z,18.60
2019-03-21T18:50:33.323Z,20.83
2019-03-21T18:53:02.483Z,25.90
2019-03-21T18:55:31.641Z,22.83
2019-03-21T18:58:00.825Z,21.50
2019-03-21T19:00:29.905Z,19.60
2019-03-21T19:03:00.652Z,23.90
2019-03-21T19:05:29.794Z,25.67
2019-03-21T19:07:58.893Z,24.73
2019-03-21T19:10:28.043Z,36.13
2019-03-21T19:12:57.163Z,27.37
2019-03-21T19:15:26.288Z,28.97
2019-03-21T19:17:55.410Z,27.27
2019-03-21T19:20:27.271Z,21.07
2019-03-21T19:22:56.642Z,24.23
2019-03-21T19:25:25.782Z,23.33
2019-03-21T19:27:54.976Z,27.90
2019-03-21T19:30:24.055Z,27.97
2019-03-21T19:32:53.171Z,24.23
2019-03-21T19:35:22.297Z,26.73
2019-03-21T19:37:51.492Z,27.97
2019-03-21T19:40:20.646Z,27.90
2019-03-21T19:42:49.759Z,27.30
2019-03-21T19:45:18.909Z,28.70
2019-03-21T19:47:48.038Z,28.57
2019-03-21T19:50:17.457Z,29.97
2019-03-21T19:52:46.554Z,27.73
2019-03-21T19:55:15.644Z,25.23
2019-03-21T19:57:44.821Z,31.10
2019-03-21T20:00:15.417Z,27.27
2019-03-21T20:02:46.611Z,28.00
2019-03-21T20:05:15.714Z,33.57
2019-03-21T20:07:44.841Z,35.13
2019-03-21T20:10:14.583Z,36.33
2019-03-21T20:12:43.748Z,32.07
2019-03-21T20:15:13.202Z,36.73
2019-03-21T20:17:42.314Z,28.73
2019-03-21T20:20:11.540Z,30.00
2019-03-21T20:22:40.705Z,28.20
2019-03-21T20:25:10.024Z,32.70
2019-03-21T20:27:39.149Z,32.30
2019-03-21T20:30:09.226Z,34.43
2019-03-21T20:32:40.482Z,29.07
2019-03-21T20:35:10.304Z,37.07
2019-03-21T20:37:39.391Z,36.83
2019-03-21T20:40:09.104Z,38.13
2019-03-21T20:42:38.212Z,30.50
2019-03-21T20:45:09.062Z,36.03
2019-03-21T20:47:38.139Z,32.73
2019-03-21T20:50:07.817Z,37.70
2019-03-21T20:52:36.906Z,37.07
2019-03-21T20:55:06.207Z,37.70
2019-03-21T20:57:36.837Z,37.03
2019-03-21T21:00:07.145Z,37.20
2019-03-21T21:02:36.204Z,32.93
2019-03-21T21:05:05.695Z,35.50
2019-03-21T21:07:34.874Z,35.77
2019-03-21T21:10:04.534Z,40.87
2019-03-21T21:12:33.669Z,35.00
2019-03-21T21:15:02.716Z,34.23
2019-03-21T21:17:31.872Z,39.63
2019-03-21T21:20:00.999Z,35.00
2019-03-21T21:22:30.129Z,39.37
2019-03-21T21:24:59.242Z,37.10
2019-03-21T21:27:28.386Z,43.50
2019-03-21T21:29:57.482Z,43.33
2019-03-21T21:32:26.652Z,37.43
2019-03-21T21:34:55.702Z,40.50
2019-03-21T21:37:25.456Z,35.63
2019-03-21T21:39:54.522Z,45.43
2019-03-21T21:42:23.657Z,47.90
2019-03-21T21:44:52.693Z,32.03
2019-03-21T21:47:21.806Z,33.10
2019-03-21T21:49:50.922Z,38.07
2019-03-21T21:52:19.995Z,39.03
2019-03-21T21:54:49.306Z,42.40
2019-03-21T21:57:18.415Z,38.37
2019-03-21T21:59:47.496Z,37.60
2019-03-21T22:02:16.631Z,42.30
2019-03-21T22:04:46.122Z,35.23
2019-03-21T22:07:15.229Z,43.00
2019-03-21T22:09:44.243Z,43.60
2019-03-21T22:12:13.229Z,42.40
2019-03-21T22:14:44.570Z,47.17
2019-03-21T22:17:13.651Z,42.43
2019-03-21T22:19:42.657Z,43.77
2019-03-21T22:22:11.697Z,46.17
2019-03-21T22:24:41.257Z,58.37
2019-03-21T22:27:10.447Z,46.03
2019-03-21T22:29:39.465Z,49.17
2019-03-21T22:32:08.489Z,54.60
2019-03-21T22:34:37.463Z,47.83
2019-03-21T22:37:06.553Z,47.17
2019-03-21T22:39:35.791Z,59.67
2019-03-21T22:42:04.871Z,55.87
2019-03-21T22:44:33.989Z,50.20
2019-03-21T22:47:03.082Z,58.70
2019-03-21T22:49:32.079Z,54.40
2019-03-21T22:52:01.168Z,58.23
2019-03-21T22:54:30.260Z,56.20
2019-03-21T22:56:59.370Z,62.73
2019-03-21T22:59:28.421Z,51.47
2019-03-21T23:01:57.419Z,49.10
2019-03-21T23:04:26.382Z,54.80
2019-03-21T23:06:55.328Z,47.83
2019-03-21T23:09:24.408Z,46.43
2019-03-21T23:11:53.386Z,49.77
2019-03-21T23:14:22.397Z,46.70
2019-03-21T23:16:51.375Z,42.33
2019-03-21T23:19:20.407Z,44.00
2019-03-21T23:21:49.323Z,48.20
2019-03-21T23:24:18.305Z,39.07
2019-03-21T23:26:52.932Z,45.03
2019-03-21T23:29:17.980Z,41.07
2019-03-21T23:31:46.953Z,43.73
2019-03-21T23:34:15.951Z,43.63
2019-03-21T23:36:45.021Z,47.67
2019-03-21T23:39:14.072Z,42.40
2019-03-21T23:41:43.057Z,40.03
2019-03-21T23:44:12.032Z,39.00
2019-03-21T23:46:41.033Z,45.13
2019-03-21T23:49:10.114Z,45.03
2019-03-21T23:51:39.085Z,43.10
2019-03-21T23:54:08.173Z,41.67
2019-03-21T23:56:37.264Z,47.60
2019-03-21T23:59:06.268Z,50.83
